createdAt,value
2022-09-20T00:00:18.400Z,15.02
2022-09-20T00:01:28.607Z,14.98
2022-09-20T00:02:30.987Z,14.93
2022-09-20T00:03:32.525Z,14.88
2022-09-20T00:04:34.095Z,14.79
2022-09-20T00:05:37.595Z,14.74
2022-09-20T00:06:39.123Z,14.65
2022-09-20T00:07:44.717Z,14.58
2022-09-20T00:08:47.319Z,14.46
2022-09-20T00:09:48.934Z,14.47
2022-09-20T00:10:50.497Z,14.47
2022-09-20T00:11:52.405Z,14.37
2022-09-20T00:12:53.931Z,14.31
2022-09-20T00:13:57.300Z,14.27
2022-09-20T00:14:58.843Z,14.27
2022-09-20T00:16:00.614Z,14.18
2022-09-20T00:17:02.420Z,14.15
2022-09-20T00:18:04.025Z,14.08
2022-09-20T00:19:06.966Z,14.07
2022-09-20T00:20:11.296Z,14.01
2022-09-20T00:21:17.482Z,13.91
2022-09-20T00:22:19.418Z,13.85
2022-09-20T00:23:20.966Z,13.83
2022-09-20T00:24:22.867Z,13.85
2022-09-20T00:25:26.847Z,13.85
2022-09-20T00:26:29.277Z,13.86
2022-09-20T00:27:31.415Z,13.84
2022-09-20T00:28:34.555Z,13.84
2022-09-20T00:29:36.351Z,13.85
2022-09-20T00:30:38.594Z,13.83
2022-09-20T00:31:42.799Z,13.85
2022-09-20T00:32:44.596Z,13.81
2022-09-20T00:34:05.244Z,13.81
2022-09-20T00:35:07.841Z,13.80
2022-09-20T00:36:09.367Z,13.79
2022-09-20T00:37:10.859Z,13.80
2022-09-20T00:38:13.974Z,13.80
2022-09-20T00:39:16.392Z,13.74
2022-09-20T00:40:21.361Z,13.67
2022-09-20T00:41:23.000Z,13.65
2022-09-20T00:42:28.988Z,13.66
2022-09-20T00:43:37.308Z,13.65
2022-09-20T00:44:57.324Z,13.66
2022-09-20T00:46:09.237Z,13.59
2022-09-20T00:47:21.846Z,13.55
2022-09-20T00:48:31.887Z,13.50
2022-09-20T00:49:35.116Z,13.45
2022-09-20T00:50:45.688Z,13.38
2022-09-20T00:51:55.796Z,13.36
2022-09-20T00:53:14.237Z,13.30
2022-09-20T00:54:20.570Z,13.26
2022-09-20T00:55:22.864Z,13.26
2022-09-20T00:56:32.746Z,13.18
2022-09-20T00:57:36.363Z,13.19
2022-09-20T00:58:41.404Z,13.22
2022-09-20T00:59:46.753Z,13.19
2022-09-20T01:00:50.296Z,13.20
2022-09-20T01:02:03.120Z,13.23
2022-09-20T01:03:10.054Z,13.24
2022-09-20T01:04:14.465Z,13.24
2022-09-20T01:05:18.303Z,13.21
2022-09-20T01:06:19.841Z,13.15
2022-09-20T01:07:22.526Z,13.11
2022-09-20T01:08:26.875Z,13.11
2022-09-20T01:09:28.410Z,13.10
2022-09-20T01:10:31.670Z,13.09
2022-09-20T01:11:34.791Z,13.05
2022-09-20T01:12:40.338Z,13.01
2022-09-20T01:13:41.838Z,13.01
2022-09-20T01:14:46.076Z,13.03
2022-09-20T01:15:49.407Z,13.03
2022-09-20T01:16:55.201Z,13.06
2022-09-20T01:17:59.219Z,13.00
2022-09-20T01:19:08.862Z,12.99
2022-09-20T01:20:13.692Z,12.93
2022-09-20T01:21:17.548Z,12.96
2022-09-20T01:22:44.432Z,12.94
2022-09-20T01:23:57.567Z,12.91
2022-09-20T01:25:09.971Z,12.88
2022-09-20T01:26:30.121Z,12.88
2022-09-20T01:27:43.635Z,12.82
2022-09-20T01:28:48.781Z,12.78
2022-09-20T01:30:03.674Z,12.74
2022-09-20T01:31:18.265Z,12.73
2022-09-20T01:32:23.738Z,12.75
2022-09-20T01:33:34.062Z,12.72
2022-09-20T01:34:41.625Z,12.69
2022-09-20T01:35:45.712Z,12.70
2022-09-20T01:37:11.689Z,12.70
2022-09-20T01:38:22.316Z,12.68
2022-09-20T01:40:06.891Z,12.65
2022-09-20T01:41:23.820Z,12.58
2022-09-20T01:42:33.560Z,12.56
2022-09-20T01:43:41.715Z,12.54
2022-09-20T01:45:21.405Z,12.51
2022-09-20T01:46:32.305Z,12.52
2022-09-20T01:47:43.632Z,12.49
2022-09-20T01:48:45.241Z,12.42
2022-09-20T01:50:01.739Z,12.43
2022-09-20T01:51:21.900Z,12.43
2022-09-20T01:52:55.972Z,12.41
2022-09-20T01:54:16.130Z,12.41
2022-09-20T01:56:08.469Z,12.41
2022-09-20T01:57:45.246Z,12.38
2022-09-20T01:59:24.512Z,12.38
2022-09-20T02:00:31.083Z,12.39
2022-09-20T02:01:32.741Z,12.41
2022-09-20T02:02:58.493Z,12.41
2022-09-20T02:04:32.193Z,12.44
2022-09-20T02:06:11.000Z,12.48
2022-09-20T02:07:47.848Z,12.46
2022-09-20T02:08:58.104Z,12.42
2022-09-20T02:10:27.059Z,12.38
2022-09-20T02:11:56.469Z,12.44
2022-09-20T02:13:11.491Z,12.42
2022-09-20T02:14:35.834Z,12.45
2022-09-20T02:15:58.716Z,12.43
2022-09-20T02:17:21.140Z,12.43
2022-09-20T02:19:03.961Z,12.47
2022-09-20T02:20:23.258Z,12.45
2022-09-20T02:21:35.842Z,12.43
2022-09-20T02:22:49.267Z,12.47
2022-09-20T02:23:56.852Z,12.46
2022-09-20T02:25:04.336Z,12.44
2022-09-20T02:26:05.816Z,12.43
2022-09-20T02:27:19.363Z,12.40
2022-09-20T02:28:54.818Z,12.40
2022-09-20T02:30:33.407Z,12.39
2022-09-20T02:31:51.785Z,12.31
2022-09-20T02:33:41.561Z,12.38
2022-09-20T02:34:48.789Z,12.33
2022-09-20T02:36:05.297Z,12.21
2022-09-20T02:37:28.584Z,12.20
2022-09-20T02:39:02.817Z,12.18
2022-09-20T02:40:10.207Z,12.21
2022-09-20T02:41:20.443Z,12.19
2022-09-20T02:42:34.761Z,12.24
2022-09-20T02:43:40.668Z,12.24
2022-09-20T02:45:07.024Z,12.24
2022-09-20T02:46:21.831Z,12.22
2022-09-20T02:47:42.739Z,12.24
2022-09-20T02:48:44.211Z,12.26
2022-09-20T02:50:16.500Z,12.30
2022-09-20T02:51:29.741Z,12.32
2022-09-20T02:52:40.718Z,12.31
2022-09-20T02:53:57.938Z,12.28
2022-09-20T02:55:36.402Z,12.31
2022-09-20T02:56:37.961Z,12.31
2022-09-20T02:58:01.194Z,12.35
2022-09-20T02:59:25.690Z,12.46
2022-09-20T03:00:32.670Z,12.52
2022-09-20T03:01:47.975Z,12.54
2022-09-20T03:02:55.539Z,12.49
2022-09-20T03:04:34.464Z,12.48
2022-09-20T03:06:03.077Z,12.48
2022-09-20T03:07:26.642Z,12.42
2022-09-20T03:08:54.772Z,12.45
2022-09-20T03:10:50.216Z,12.48
2022-09-20T03:12:02.645Z,12.50
2022-09-20T03:13:42.195Z,12.55
2022-09-20T03:14:55.538Z,12.58
2022-09-20T03:16:25.628Z,12.54
2022-09-20T03:17:57.584Z,12.62
2022-09-20T03:19:19.116Z,12.57
2022-09-20T03:20:33.403Z,12.52
2022-09-20T03:21:52.410Z,12.56
2022-09-20T03:23:22.370Z,12.55
2022-09-20T03:24:54.284Z,12.45
2022-09-20T03:26:05.768Z,12.47
2022-09-20T03:27:28.240Z,12.30
2022-09-20T03:28:50.179Z,12.29
2022-09-20T03:30:16.163Z,12.28
2022-09-20T03:31:49.977Z,12.25
2022-09-20T03:32:57.569Z,12.23
2022-09-20T03:34:08.748Z,12.29
2022-09-20T03:35:49.525Z,12.26
2022-09-20T03:37:13.436Z,12.22
2022-09-20T03:38:52.156Z,12.26
2022-09-20T03:40:03.161Z,12.37
2022-09-20T03:41:31.005Z,12.41
2022-09-20T03:42:33.064Z,12.47
2022-09-20T03:43:46.673Z,12.50
2022-09-20T03:45:12.404Z,12.54
2022-09-20T03:46:18.719Z,12.50
2022-09-20T03:47:42.838Z,12.50
2022-09-20T03:49:02.350Z,12.52
2022-09-20T03:50:28.934Z,12.55
2022-09-20T03:51:54.394Z,12.50
2022-09-20T03:53:19.314Z,12.44
2022-09-20T03:54:52.827Z,12.43
2022-09-20T03:56:33.492Z,12.37
2022-09-20T03:57:52.028Z,12.36
2022-09-20T03:59:12.036Z,12.33
2022-09-20T04:00:13.696Z,12.28
2022-09-20T04:01:24.516Z,12.24
2022-09-20T04:03:01.737Z,12.26
2022-09-20T04:04:27.158Z,12.32
2022-09-20T04:05:43.607Z,12.29
2022-09-20T04:07:05.784Z,12.33
2022-09-20T04:08:26.356Z,12.32
2022-09-20T04:09:56.077Z,12.26
2022-09-20T04:11:16.503Z,12.26
2022-09-20T04:12:47.234Z,12.31
2022-09-20T04:14:15.517Z,12.30
2022-09-20T04:15:51.053Z,12.31
2022-09-20T04:16:57.605Z,12.28
2022-09-20T04:18:23.823Z,12.29
2022-09-20T04:19:33.434Z,12.36
2022-09-20T04:20:43.869Z,12.35
2022-09-20T04:22:01.711Z,12.37
2022-09-20T04:23:16.219Z,12.42
2022-09-20T04:24:31.991Z,12.42
2022-09-20T04:25:43.749Z,12.43
2022-09-20T04:26:50.366Z,12.42
2022-09-20T04:28:08.698Z,12.34
2022-09-20T04:29:26.399Z,12.42
2022-09-20T04:30:32.099Z,12.49
2022-09-20T04:31:45.529Z,12.53
2022-09-20T04:33:20.695Z,12.56
2022-09-20T04:34:51.826Z,12.49
2022-09-20T04:36:30.539Z,12.49
2022-09-20T04:37:36.586Z,12.54
2022-09-20T04:38:38.445Z,12.59
2022-09-20T04:39:43.058Z,12.58
2022-09-20T04:40:53.596Z,12.65
2022-09-20T04:42:09.767Z,12.70
2022-09-20T04:43:22.348Z,12.56
2022-09-20T04:44:45.987Z,12.42
2022-09-20T04:46:05.805Z,12.08
2022-09-20T04:47:23.820Z,12.01
2022-09-20T04:48:47.325Z,12.03
2022-09-20T04:50:33.856Z,11.94
2022-09-20T04:51:54.406Z,12.03
2022-09-20T04:53:11.796Z,12.06
2022-09-20T04:54:33.001Z,12.16
2022-09-20T04:55:40.389Z,12.16
2022-09-20T04:56:44.807Z,12.19
2022-09-20T04:58:14.270Z,12.16
2022-09-20T04:59:54.180Z,12.25
2022-09-20T05:01:23.412Z,12.25
2022-09-20T05:02:55.065Z,12.24
2022-09-20T05:04:34.189Z,12.20
2022-09-20T05:06:14.409Z,12.15
2022-09-20T05:08:09.862Z,12.03
2022-09-20T05:09:23.557Z,12.01
2022-09-20T05:10:54.068Z,12.01
2022-09-20T05:12:31.237Z,11.96
2022-09-20T05:13:54.336Z,11.93
2022-09-20T05:15:24.020Z,12.10
2022-09-20T05:16:50.224Z,12.28
2022-09-20T05:18:35.752Z,12.50
2022-09-20T05:20:01.559Z,12.65
2022-09-20T05:21:22.626Z,12.81
2022-09-20T05:23:12.706Z,12.87
2022-09-20T05:24:30.285Z,12.94
2022-09-20T05:26:00.756Z,12.96
2022-09-20T05:27:23.871Z,12.95
2022-09-20T05:29:02.848Z,13.02
2022-09-20T05:30:09.821Z,13.15
2022-09-20T05:31:17.645Z,13.34
2022-09-20T05:32:45.310Z,13.48
2022-09-20T05:34:04.412Z,13.65
2022-09-20T05:35:18.622Z,13.62
2022-09-20T05:36:34.548Z,13.59
2022-09-20T05:38:11.655Z,13.40
2022-09-20T05:39:33.475Z,13.24
2022-09-20T05:41:14.231Z,13.15
2022-09-20T05:42:47.114Z,13.03
2022-09-20T05:44:19.959Z,13.01
2022-09-20T05:45:48.249Z,13.07
2022-09-20T05:47:01.954Z,13.19
2022-09-20T05:48:32.933Z,13.38
2022-09-20T05:49:41.816Z,13.50
2022-09-20T05:51:34.117Z,13.67
2022-09-20T05:52:43.217Z,13.90
2022-09-20T05:54:23.133Z,14.01
2022-09-20T05:55:49.511Z,14.32
2022-09-20T05:57:12.238Z,14.45
2022-09-20T05:58:22.632Z,14.52
2022-09-20T05:59:26.886Z,14.64
2022-09-20T06:00:45.105Z,14.74
2022-09-20T06:01:57.663Z,14.86
2022-09-20T06:03:11.463Z,15.06
2022-09-20T06:04:19.830Z,15.26
2022-09-20T06:05:27.248Z,15.42
2022-09-20T06:06:58.562Z,15.50
2022-09-20T06:08:21.644Z,15.47
2022-09-20T06:09:34.171Z,15.45
2022-09-20T06:11:00.476Z,15.58
2022-09-20T06:12:20.953Z,15.63
2022-09-20T06:13:37.602Z,15.52
2022-09-20T06:15:02.025Z,15.48
2022-09-20T06:16:06.123Z,15.41
2022-09-20T06:17:25.306Z,15.49
2022-09-20T06:18:54.832Z,15.60
2022-09-20T06:20:25.348Z,15.64
2022-09-20T06:21:46.692Z,15.70
2022-09-20T06:22:56.445Z,15.65
2022-09-20T06:24:01.082Z,15.65
2022-09-20T06:25:08.675Z,15.88
2022-09-20T06:26:37.429Z,15.85
2022-09-20T06:27:47.071Z,15.97
2022-09-20T06:28:55.278Z,16.12
2022-09-20T06:30:05.895Z,16.25
2022-09-20T06:31:09.114Z,16.38
2022-09-20T06:32:10.696Z,16.37
2022-09-20T06:33:18.059Z,16.40
2022-09-20T06:34:19.715Z,16.28
2022-09-20T06:35:24.132Z,16.19
2022-09-20T06:36:48.515Z,16.21
2022-09-20T06:38:21.579Z,16.33
2022-09-20T06:40:32.522Z,16.39
2022-09-20T06:41:36.395Z,16.43
2022-09-20T06:42:38.545Z,16.51
2022-09-20T06:43:41.145Z,16.45
2022-09-20T06:44:43.411Z,16.32
2022-09-20T06:45:45.496Z,16.09
2022-09-20T06:46:47.646Z,16.03
2022-09-20T06:47:49.173Z,15.97
2022-09-20T06:48:51.244Z,15.95
2022-09-20T06:49:52.931Z,15.90
2022-09-20T06:50:54.907Z,15.89
2022-09-20T06:51:57.417Z,15.89
2022-09-20T06:52:58.927Z,15.93
2022-09-20T06:54:00.687Z,16.00
2022-09-20T06:55:07.400Z,16.00
2022-09-20T06:56:13.342Z,16.00
2022-09-20T06:57:18.993Z,15.92
2022-09-20T06:58:20.503Z,15.89
2022-09-20T06:59:22.408Z,15.93
2022-09-20T07:00:24.482Z,15.91
2022-09-20T07:01:30.487Z,15.99
2022-09-20T07:02:32.289Z,16.08
2022-09-20T07:03:33.843Z,16.13
2022-09-20T07:04:35.721Z,16.16
2022-09-20T07:05:37.371Z,16.21
2022-09-20T07:06:39.123Z,16.35
2022-09-20T07:07:40.726Z,16.47
2022-09-20T07:08:43.103Z,16.54
2022-09-20T07:09:44.950Z,16.59
2022-09-20T07:10:46.515Z,16.58
2022-09-20T07:11:48.036Z,16.50
2022-09-20T07:12:49.788Z,16.45
2022-09-20T07:13:53.994Z,16.54
2022-09-20T07:14:55.516Z,16.49
2022-09-20T07:16:04.731Z,16.40
2022-09-20T07:17:06.646Z,16.43
2022-09-20T07:18:08.270Z,16.49
2022-09-20T07:19:09.800Z,16.49
2022-09-20T07:20:11.343Z,16.51
2022-09-20T07:21:16.169Z,16.57
2022-09-20T07:22:17.691Z,16.43
2022-09-20T07:23:19.359Z,16.46
2022-09-20T07:24:21.017Z,16.62
2022-09-20T07:25:23.442Z,16.72
2022-09-20T07:26:28.427Z,16.75
2022-09-20T07:27:30.206Z,16.76
2022-09-20T07:28:34.288Z,16.75
2022-09-20T07:29:36.046Z,16.81
2022-09-20T07:30:39.141Z,16.74
2022-09-20T07:31:40.662Z,16.62
2022-09-20T07:32:42.546Z,16.69
2022-09-20T07:33:44.855Z,16.88
2022-09-20T07:34:47.065Z,17.01
2022-09-20T07:35:49.188Z,17.04
2022-09-20T07:36:51.323Z,16.98
2022-09-20T07:37:58.871Z,16.99
2022-09-20T07:39:00.399Z,17.06
2022-09-20T07:40:02.866Z,17.13
2022-09-20T07:41:05.354Z,17.15
2022-09-20T07:42:07.418Z,17.08
2022-09-20T07:43:09.185Z,16.89
2022-09-20T07:44:25.879Z,16.71
2022-09-20T07:45:27.513Z,16.72
2022-09-20T07:46:29.120Z,16.68
2022-09-20T07:47:35.309Z,16.75
2022-09-20T07:48:37.024Z,16.88
2022-09-20T07:49:38.780Z,16.86
2022-09-20T07:50:40.296Z,16.85
2022-09-20T07:51:41.934Z,16.77
2022-09-20T07:54:35.343Z,16.89
2022-09-20T07:55:37.083Z,16.99
2022-09-20T07:56:38.797Z,17.12
2022-09-20T07:57:40.505Z,17.14
2022-09-20T07:58:43.241Z,17.16
2022-09-20T07:59:44.813Z,17.19
2022-09-20T08:00:52.174Z,17.20
2022-09-20T08:01:53.797Z,17.17
2022-09-20T08:03:00.224Z,17.13
2022-09-20T08:04:02.065Z,17.11
2022-09-20T08:05:04.834Z,17.11
2022-09-20T08:06:08.984Z,17.15
2022-09-20T08:07:10.826Z,17.17
2022-09-20T08:08:13.184Z,17.19
2022-09-20T08:09:14.735Z,17.24
2022-09-20T08:10:16.381Z,17.18
2022-09-20T08:11:21.751Z,17.30
2022-09-20T08:15:11.904Z,17.36
2022-09-20T08:16:14.854Z,17.49
2022-09-20T08:17:16.431Z,17.54
2022-09-20T08:18:17.939Z,17.66
2022-09-20T08:19:21.844Z,17.66
2022-09-20T08:20:23.356Z,17.49
2022-09-20T08:21:31.488Z,17.37
2022-09-20T08:22:33.245Z,17.47
2022-09-20T08:23:39.054Z,17.38
2022-09-20T08:24:40.589Z,17.44
2022-09-20T08:25:42.124Z,17.46
2022-09-20T08:26:44.453Z,17.36
2022-09-20T08:27:52.761Z,17.32
2022-09-20T08:28:56.763Z,17.20
2022-09-20T08:29:58.441Z,17.22
2022-09-20T08:31:08.470Z,17.24
2022-09-20T08:32:10.369Z,17.24
2022-09-20T08:33:12.991Z,17.25
2022-09-20T08:34:17.018Z,17.24
2022-09-20T08:35:18.630Z,17.19
2022-09-20T08:36:24.349Z,17.27
2022-09-20T08:37:26.668Z,17.45
2022-09-20T08:39:58.454Z,17.26
2022-09-20T08:41:15.254Z,17.38
2022-09-20T08:42:33.877Z,17.42
2022-09-20T08:43:45.276Z,17.48
2022-09-20T08:45:00.455Z,17.54
2022-09-20T08:46:06.040Z,17.61
2022-09-20T08:47:14.153Z,17.69
2022-09-20T08:48:17.090Z,17.83
2022-09-20T08:49:29.768Z,17.77
2022-09-20T08:50:34.241Z,17.86
2022-09-20T08:51:38.965Z,17.86
2022-09-20T08:52:41.357Z,17.87
2022-09-20T08:53:49.224Z,17.86
2022-09-20T08:54:51.066Z,17.85
2022-09-20T08:55:52.567Z,17.88
2022-09-20T08:56:54.959Z,17.95
2022-09-20T08:57:58.226Z,18.04
2022-09-20T08:59:00.046Z,18.18
2022-09-20T09:00:03.102Z,18.30
2022-09-20T09:01:06.209Z,18.36
2022-09-20T09:02:20.427Z,18.42
2022-09-20T09:03:22.698Z,18.44
2022-09-20T09:04:29.882Z,18.39
2022-09-20T09:05:46.774Z,18.18
2022-09-20T09:06:49.783Z,18.11
2022-09-20T09:07:52.004Z,18.07
2022-09-20T09:08:58.438Z,17.88
2022-09-20T09:10:00.668Z,17.83
2022-09-20T09:11:09.424Z,17.95
2022-09-20T09:12:32.493Z,18.13
2022-09-20T09:13:54.577Z,18.05
2022-09-20T09:15:24.202Z,17.98
2022-09-20T09:16:34.997Z,18.05
2022-09-20T09:17:37.625Z,18.03
2022-09-20T09:18:42.936Z,17.96
2022-09-20T09:19:50.408Z,18.01
2022-09-20T09:20:52.017Z,18.04
2022-09-20T09:22:17.729Z,17.92
2022-09-20T09:23:26.105Z,17.90
2022-09-20T09:24:27.753Z,17.95
2022-09-20T09:25:39.855Z,17.94
2022-09-20T09:26:43.403Z,17.97
2022-09-20T09:27:59.710Z,17.99
2022-09-20T09:29:16.119Z,17.97
2022-09-20T09:30:28.030Z,17.94
2022-09-20T09:31:29.652Z,17.88
2022-09-20T09:32:32.979Z,17.89
2022-09-20T09:33:34.932Z,17.77
2022-09-20T09:34:38.807Z,17.83
2022-09-20T09:35:40.549Z,17.89
2022-09-20T09:36:45.156Z,17.93
2022-09-20T09:38:01.246Z,18.04
2022-09-20T09:39:38.384Z,18.09
2022-09-20T09:40:50.846Z,18.07
2022-09-20T09:41:52.669Z,18.16
2022-09-20T09:42:57.117Z,18.10
2022-09-20T09:44:09.941Z,18.17
2022-09-20T09:45:13.952Z,18.19
2022-09-20T09:46:21.351Z,18.18
2022-09-20T09:47:31.180Z,18.25
2022-09-20T09:48:32.920Z,18.24
2022-09-20T09:49:36.073Z,18.28
2022-09-20T09:50:37.947Z,18.36
2022-09-20T09:51:39.565Z,18.43
2022-09-20T09:52:41.132Z,18.39
2022-09-20T09:53:44.717Z,18.27
2022-09-20T09:54:50.590Z,18.34
2022-09-20T09:56:04.011Z,18.42
2022-09-20T09:57:24.190Z,18.51
2022-09-20T09:58:45.004Z,18.54
2022-09-20T10:00:20.900Z,18.54
2022-09-20T10:01:56.313Z,18.55
2022-09-20T10:03:26.354Z,18.64
2022-09-20T10:05:04.035Z,18.52
2022-09-20T10:06:18.290Z,18.45
2022-09-20T10:07:44.138Z,18.50
2022-09-20T10:09:10.079Z,18.61
2022-09-20T10:10:36.079Z,18.51
2022-09-20T10:11:49.710Z,18.39
2022-09-20T10:13:23.984Z,18.29
2022-09-20T10:14:40.704Z,18.20
2022-09-20T10:16:08.280Z,18.43
2022-09-20T10:17:27.526Z,18.57
2022-09-20T10:18:40.693Z,18.66
2022-09-20T10:20:02.255Z,18.70
2022-09-20T10:21:41.353Z,18.60
2022-09-20T10:25:02.967Z,18.48
2022-09-20T10:26:22.176Z,18.46
2022-09-20T10:27:32.485Z,18.49
2022-09-20T10:28:50.707Z,18.48
2022-09-20T10:30:09.457Z,18.71
2022-09-20T10:31:25.842Z,18.82
2022-09-20T10:32:50.113Z,18.79
2022-09-20T10:34:11.848Z,18.70
2022-09-20T10:35:25.049Z,18.63
2022-09-20T10:36:52.364Z,18.60
2022-09-20T10:38:00.015Z,18.67
2022-09-20T10:39:41.085Z,18.78
2022-09-20T10:41:21.639Z,18.95
2022-09-20T10:42:50.388Z,18.98
2022-09-20T10:44:10.126Z,18.89
2022-09-20T10:45:42.163Z,18.91
2022-09-20T10:47:06.883Z,18.95
2022-09-20T10:48:32.451Z,19.02
2022-09-20T10:50:11.412Z,19.09
2022-09-20T10:51:35.977Z,19.18
2022-09-20T10:52:45.318Z,19.28
2022-09-20T10:54:10.603Z,19.27
2022-09-20T10:55:33.777Z,19.17
2022-09-20T10:56:39.542Z,19.13
2022-09-20T10:57:47.224Z,19.13
2022-09-20T10:58:49.101Z,19.26
2022-09-20T10:59:51.289Z,19.35
2022-09-20T11:01:00.773Z,19.32
2022-09-20T11:02:41.103Z,19.25
2022-09-20T11:03:59.182Z,19.18
2022-09-20T11:05:19.037Z,19.14
2022-09-20T11:06:43.507Z,19.14
2022-09-20T11:08:06.230Z,19.21
2022-09-20T11:09:14.270Z,19.28
2022-09-20T11:10:56.952Z,19.25
2022-09-20T11:12:23.042Z,19.26
2022-09-20T11:13:30.459Z,19.38
2022-09-20T11:14:38.307Z,19.39
2022-09-20T11:15:47.040Z,19.39
2022-09-20T11:17:22.353Z,19.47
2022-09-20T11:18:40.842Z,19.50
2022-09-20T11:20:27.323Z,19.48
2022-09-20T11:21:38.417Z,19.45
2022-09-20T11:22:53.115Z,19.39
2022-09-20T11:24:22.596Z,19.29
2022-09-20T11:25:55.523Z,19.22
2022-09-20T11:27:04.806Z,19.24
2022-09-20T11:28:28.168Z,19.36
2022-09-20T11:29:56.062Z,19.32
2022-09-20T11:31:04.967Z,19.22
2022-09-20T11:32:13.881Z,19.17
2022-09-20T11:33:47.073Z,19.13
2022-09-20T11:35:17.553Z,19.26
2022-09-20T11:36:24.229Z,19.38
2022-09-20T11:37:34.152Z,19.40
2022-09-20T11:38:53.035Z,19.39
2022-09-20T11:39:55.756Z,19.32
2022-09-20T11:41:08.833Z,19.21
2022-09-20T11:42:19.115Z,19.27
2022-09-20T11:43:22.477Z,19.32
2022-09-20T11:44:24.691Z,19.39
2022-09-20T11:45:28.866Z,19.38
2022-09-20T11:46:50.417Z,19.43
2022-09-20T11:47:56.341Z,19.38
2022-09-20T11:49:06.207Z,19.30
2022-09-20T11:50:26.882Z,19.32
2022-09-20T11:51:40.263Z,19.40
2022-09-20T11:53:03.673Z,19.46
2022-09-20T11:54:11.190Z,19.59
2022-09-20T11:55:19.000Z,19.65
2022-09-20T11:56:25.721Z,19.76
2022-09-20T11:57:28.444Z,19.78
2022-09-20T11:58:31.581Z,19.81
2022-09-20T11:59:40.376Z,19.86
2022-09-20T12:00:46.107Z,19.86
2022-09-20T12:01:47.698Z,19.93
2022-09-20T12:02:54.215Z,19.80
2022-09-20T12:05:38.038Z,19.47
2022-09-20T12:06:42.567Z,19.33
2022-09-20T12:07:44.414Z,19.34
2022-09-20T12:08:50.395Z,19.36
2022-09-20T12:10:02.609Z,19.31
2022-09-20T12:11:10.713Z,19.35
2022-09-20T12:12:34.209Z,19.57
2022-09-20T12:13:38.946Z,19.54
2022-09-20T12:14:42.234Z,19.45
2022-09-20T12:15:44.214Z,19.42
2022-09-20T12:16:48.593Z,19.43
2022-09-20T12:17:50.323Z,19.51
2022-09-20T12:18:54.804Z,19.49
2022-09-20T12:19:56.367Z,19.48
2022-09-20T12:20:59.734Z,19.53
2022-09-20T12:22:01.210Z,19.58
2022-09-20T12:23:43.249Z,19.55
2022-09-20T12:24:45.708Z,19.55
2022-09-20T12:26:20.755Z,19.46
2022-09-20T12:27:26.362Z,19.45
2022-09-20T12:28:36.206Z,19.55
2022-09-20T12:29:50.132Z,19.59
2022-09-20T12:31:29.189Z,19.58
2022-09-20T12:32:44.391Z,19.52
2022-09-20T12:34:02.359Z,19.48
2022-09-20T12:35:35.847Z,19.39
2022-09-20T12:36:43.504Z,19.46
2022-09-20T12:37:45.138Z,19.36
2022-09-20T12:38:48.703Z,19.40
2022-09-20T12:39:55.697Z,19.51
2022-09-20T12:40:59.944Z,19.58
2022-09-20T12:42:01.420Z,19.59
2022-09-20T12:43:02.984Z,19.64
2022-09-20T12:44:24.521Z,19.67
2022-09-20T12:45:26.236Z,19.66
2022-09-20T12:46:38.355Z,19.65
2022-09-20T12:47:40.001Z,19.63
2022-09-20T12:48:41.819Z,19.67
2022-09-20T12:50:05.001Z,19.71
2022-09-20T12:52:00.839Z,19.68
2022-09-20T12:53:11.429Z,19.63
2022-09-20T12:54:14.029Z,19.68
2022-09-20T12:55:30.279Z,19.71
2022-09-20T12:56:36.305Z,19.63
2022-09-20T12:57:38.312Z,19.59
2022-09-20T12:58:53.633Z,19.63
2022-09-20T12:59:59.124Z,19.67
2022-09-20T13:01:03.352Z,19.67
2022-09-20T13:02:42.205Z,19.59
2022-09-20T13:03:48.361Z,19.56
2022-09-20T13:04:55.303Z,19.58
2022-09-20T13:06:16.421Z,19.63
2022-09-20T13:07:40.069Z,19.52
2022-09-20T13:09:07.450Z,19.52
2022-09-20T13:10:23.632Z,19.55
2022-09-20T13:11:29.474Z,19.61
2022-09-20T13:12:32.236Z,19.58
2022-09-20T13:13:43.360Z,19.52
2022-09-20T13:14:45.395Z,19.58
2022-09-20T13:15:53.637Z,19.53
2022-09-20T13:17:15.900Z,19.54
2022-09-20T13:18:18.312Z,19.71
2022-09-20T13:19:29.732Z,19.70
2022-09-20T13:20:34.909Z,19.63
2022-09-20T13:21:51.518Z,19.61
2022-09-20T13:22:59.564Z,19.60
2022-09-20T13:24:03.451Z,19.63
2022-09-20T13:25:07.354Z,19.73
2022-09-20T13:26:13.053Z,19.81
2022-09-20T13:27:21.000Z,19.77
2022-09-20T13:28:32.122Z,19.72
2022-09-20T13:29:42.337Z,19.76
2022-09-20T13:30:43.852Z,19.76
2022-09-20T13:31:45.442Z,19.79
2022-09-20T13:32:48.963Z,19.79
2022-09-20T13:33:51.076Z,19.78
2022-09-20T13:35:10.517Z,19.73
2022-09-20T13:36:12.493Z,19.76
2022-09-20T13:37:23.641Z,19.82
2022-09-20T13:38:30.702Z,19.73
2022-09-20T13:39:36.226Z,19.73
2022-09-20T13:40:41.527Z,19.69
2022-09-20T13:41:43.536Z,19.70
2022-09-20T13:42:46.277Z,19.65
2022-09-20T13:43:50.038Z,19.74
2022-09-20T13:44:52.288Z,19.70
2022-09-20T13:45:59.735Z,19.67
2022-09-20T13:47:01.588Z,19.68
2022-09-20T13:48:03.157Z,19.74
2022-09-20T13:49:20.724Z,19.74
2022-09-20T13:50:26.286Z,19.75
2022-09-20T13:51:28.742Z,19.70
2022-09-20T13:52:31.718Z,19.68
2022-09-20T13:53:41.780Z,19.68
2022-09-20T13:54:43.703Z,19.73
2022-09-20T13:55:46.443Z,19.74
2022-09-20T13:56:49.303Z,19.76
2022-09-20T13:57:53.317Z,19.79
2022-09-20T13:58:58.799Z,19.77
2022-09-20T14:00:01.732Z,19.75
2022-09-20T14:01:06.418Z,19.75
2022-09-20T14:02:24.203Z,19.74
2022-09-20T14:03:27.659Z,19.71
2022-09-20T14:04:31.381Z,19.71
2022-09-20T14:05:33.570Z,19.68
2022-09-20T14:06:35.815Z,19.64
2022-09-20T14:07:37.543Z,19.65
2022-09-20T14:08:45.340Z,19.70
2022-09-20T14:09:46.856Z,19.80
2022-09-20T14:10:50.601Z,19.81
2022-09-20T14:11:53.528Z,19.79
2022-09-20T14:12:56.165Z,19.71
2022-09-20T14:14:02.872Z,19.66
2022-09-20T14:15:09.865Z,19.63
2022-09-20T14:16:12.728Z,19.64
2022-09-20T14:17:19.014Z,19.58
2022-09-20T14:18:22.494Z,19.56
2022-09-20T14:19:33.385Z,19.51
2022-09-20T14:20:35.208Z,19.56
2022-09-20T14:21:38.280Z,19.66
2022-09-20T14:22:39.920Z,19.72
2022-09-20T14:23:53.816Z,19.79
2022-09-20T14:25:14.316Z,19.69
2022-09-20T14:26:15.953Z,19.62
2022-09-20T14:27:19.840Z,19.63
2022-09-20T14:28:24.578Z,19.65
2022-09-20T14:29:56.464Z,19.69
2022-09-20T14:31:08.779Z,19.56
2022-09-20T14:32:17.968Z,19.49
2022-09-20T14:33:21.102Z,19.43
2022-09-20T14:34:23.359Z,19.42
2022-09-20T14:35:27.004Z,19.46
2022-09-20T14:36:30.319Z,19.47
2022-09-20T14:37:49.633Z,19.45
2022-09-20T14:38:55.119Z,19.52
2022-09-20T14:39:59.272Z,19.51
2022-09-20T14:41:00.882Z,19.49
2022-09-20T14:42:02.445Z,19.55
2022-09-20T14:43:06.369Z,19.55
2022-09-20T14:44:33.392Z,19.44
2022-09-20T14:45:41.186Z,19.39
2022-09-20T14:46:43.340Z,19.40
2022-09-20T14:48:09.326Z,19.43
2022-09-20T14:49:26.247Z,19.37
2022-09-20T14:50:29.875Z,19.33
2022-09-20T14:51:31.374Z,19.33
2022-09-20T14:52:38.414Z,19.28
2022-09-20T14:53:40.192Z,19.29
2022-09-20T14:54:41.703Z,19.30
2022-09-20T14:56:15.146Z,19.28
2022-09-20T14:57:16.656Z,19.18
2022-09-20T14:58:18.176Z,19.12
2022-09-20T14:59:19.945Z,19.13
2022-09-20T15:00:21.984Z,19.15
2022-09-20T15:01:25.918Z,19.15
2022-09-20T15:02:27.583Z,19.15
2022-09-20T15:03:34.020Z,19.11
2022-09-20T15:04:37.969Z,19.05
2022-09-20T15:05:39.774Z,18.99
2022-09-20T15:06:41.820Z,19.02
2022-09-20T15:07:43.487Z,18.95
2022-09-20T15:08:46.893Z,18.91
2022-09-20T15:09:49.127Z,18.86
2022-09-20T15:10:50.892Z,18.86
2022-09-20T15:12:00.603Z,18.82
2022-09-20T15:13:02.114Z,18.83
2022-09-20T15:14:03.636Z,18.79
2022-09-20T15:15:05.686Z,18.82
2022-09-20T15:16:07.542Z,18.81
2022-09-20T15:17:20.768Z,18.73
2022-09-20T15:18:37.401Z,18.66
2022-09-20T15:19:38.953Z,18.59
2022-09-20T15:20:40.474Z,18.54
2022-09-20T15:21:41.984Z,18.48
2022-09-20T15:22:44.002Z,18.44
2022-09-20T15:23:45.524Z,18.42
2022-09-20T15:24:47.748Z,18.37
2022-09-20T15:25:51.960Z,18.38
2022-09-20T15:26:54.090Z,18.38
2022-09-20T15:27:57.824Z,18.39
2022-09-20T15:29:00.036Z,18.39
2022-09-20T15:30:01.594Z,18.38
2022-09-20T15:31:03.163Z,18.35
2022-09-20T15:32:05.882Z,18.31
2022-09-20T15:33:07.531Z,18.32
2022-09-20T15:34:09.069Z,18.30
2022-09-20T15:35:11.739Z,18.29
2022-09-20T15:36:13.347Z,18.27
2022-09-20T15:37:14.859Z,18.23
2022-09-20T15:38:18.305Z,18.19
2022-09-20T15:39:22.086Z,18.18